Time;durP1;ratioP1;P1;durP2;ratioP2;P2;SDS_P1;SDS_P2;PMS_P1;PMS_P2;Temp;Humidity;BMP_temperature;BMP_pressure;BME280_temperature;BME280_humidity;BME280_pressure;Samples;Min_cycle;Max_cycle;Signal;HPM_P1;HPM_P2
2021/01/06 00:00:42;;;;;;;28.15;15.95;;;;;;;;;;5070935;28;20202;-53
2021/01/06 00:03:14;;;;;;;22.60;13.85;;;;;;;;;;5070783;28;20637;-53
2021/01/06 00:05:40;;;;;;;23.38;13.57;;;;;;;;;;5070482;28;20169;-53
2021/01/06 00:08:06;;;;;;;22.48;14.15;;;;;;;;;;5070696;28;20267;-53
2021/01/06 00:10:33;;;;;;;24.65;13.93;;;;;;;;;;5070871;28;20678;-53
2021/01/06 00:12:59;;;;;;;29.15;14.63;;;;;;;;;;5070803;28;20172;-53
2021/01/06 00:15:26;;;;;;;24.20;15.25;;;;;;;;;;5069526;28;20931;-53
2021/01/06 00:17:52;;;;;;;25.48;15.55;;;;;;;;;;5070607;28;20172;-53
2021/01/06 00:20:19;;;;;;;27.40;15.93;;;;;;;;;;5070885;28;20188;-53
2021/01/06 00:22:45;;;;;;;25.35;14.13;;;;;;;;;;5070529;28;20407;-55
2021/01/06 00:25:16;;;;;;;26.77;14.80;;;;;;;;;;5070651;28;20286;-55
2021/01/06 00:27:42;;;;;;;25.48;15.10;;;;;;;;;;5070494;28;20408;-54
2021/01/06 00:30:19;;;;;;;27.70;15.75;;;;;;;;;;5070516;28;20232;-55
2021/01/06 00:32:45;;;;;;;27.48;15.80;;;;;;;;;;5070387;28;20161;-53
2021/01/06 00:35:11;;;;;;;25.23;16.05;;;;;;;;;;5070529;28;20187;-53
2021/01/06 00:37:37;;;;;;;27.83;15.77;;;;;;;;;;5070440;28;20810;-53
2021/01/06 00:40:04;;;;;;;26.17;15.20;;;;;;;;;;5070404;28;20823;-53
2021/01/06 00:42:30;;;;;;;23.85;15.45;;;;;;;;;;5070454;28;20176;-54
2021/01/06 00:44:56;;;;;;;24.02;14.77;;;;;;;;;;5069134;28;20353;-54
2021/01/06 00:47:22;;;;;;;21.42;13.60;;;;;;;;;;5070076;28;20214;-55
2021/01/06 00:49:48;;;;;;;23.10;14.80;;;;;;;;;;5073346;28;20184;-53
2021/01/06 00:52:14;;;;;;;23.90;15.00;;;;;;;;;;5073808;28;20404;-55
2021/01/06 00:54:40;;;;;;;24.83;15.77;;;;;;;;;;5074111;28;20444;-54
2021/01/06 00:57:06;;;;;;;23.45;14.02;;;;;;;;;;5073953;28;20436;-53
2021/01/06 00:59:32;;;;;;;23.50;14.40;;;;;;;;;;5073847;28;20205;-53
2021/01/06 01:01:58;;;;;;;22.93;13.87;;;;;;;;;;5073962;28;20166;-54
2021/01/06 01:04:24;;;;;;;22.10;13.63;;;;;;;;;;5073803;28;20763;-53
2021/01/06 01:06:52;;;;;;;21.87;14.23;;;;;;;;;;5073665;28;20399;-54
2021/01/06 01:09:18;;;;;;;23.33;14.02;;;;;;;;;;5073744;28;20509;-54
2021/01/06 01:11:44;;;;;;;22.60;13.83;;;;;;;;;;5073879;28;20223;-54
2021/01/06 01:14:10;;;;;;;28.77;15.50;;;;;;;;;;5071894;28;20441;-53
2021/01/06 01:16:40;;;;;;;22.77;14.47;;;;;;;;;;5073423;28;20179;-53
2021/01/06 01:19:06;;;;;;;23.98;14.25;;;;;;;;;;5073789;28;20446;-54
2021/01/06 01:21:32;;;;;;;26.70;15.77;;;;;;;;;;5073546;28;20172;-53
2021/01/06 01:23:58;;;;;;;24.70;14.97;;;;;;;;;;5073531;28;20455;-54
2021/01/06 01:26:24;;;;;;;27.10;15.37;;;;;;;;;;5073178;28;20529;-54
2021/01/06 01:28:50;;;;;;;20.70;13.70;;;;;;;;;;5073479;28;20413;-55
2021/01/06 01:31:16;;;;;;;25.13;14.87;;;;;;;;;;5073286;28;20434;-54
2021/01/06 01:33:43;;;;;;;23.00;14.73;;;;;;;;;;5073409;28;20399;-53
2021/01/06 01:36:09;;;;;;;22.98;14.95;;;;;;;;;;5072997;28;20968;-54
2021/01/06 01:38:35;;;;;;;17.83;12.60;;;;;;;;;;5073294;28;20609;-54
2021/01/06 01:41:01;;;;;;;18.40;12.83;;;;;;;;;;5073290;28;20244;-53
2021/01/06 01:43:27;;;;;;;18.33;11.67;;;;;;;;;;5072104;28;20931;-54
2021/01/06 01:45:53;;;;;;;25.35;13.50;;;;;;;;;;5072814;28;20505;-54
2021/01/06 01:48:39;;;;;;;19.57;13.60;;;;;;;;;;5073064;28;20705;-54
2021/01/06 01:51:14;;;;;;;16.88;13.68;;;;;;;;;;5073150;28;20400;-55
2021/01/06 01:53:45;;;;;;;18.92;11.45;;;;;;;;;;5073045;28;20179;-54
2021/01/06 01:56:12;;;;;;;18.52;13.07;;;;;;;;;;5072793;28;20173;-53
2021/01/06 01:58:39;;;;;;;16.85;12.10;;;;;;;;;;5072754;28;20210;-54
2021/01/06 02:01:05;;;;;;;17.05;10.60;;;;;;;;;;5071959;28;20702;-53
2021/01/06 02:03:35;;;;;;;17.42;11.00;;;;;;;;;;5071812;28;20196;-54
2021/01/06 02:06:04;;;;;;;15.45;10.15;;;;;;;;;;5072219;28;20222;-54
2021/01/06 02:08:34;;;;;;;15.95;10.43;;;;;;;;;;5074377;28;20187;-54
2021/01/06 02:11:05;;;;;;;16.63;11.50;;;;;;;;;;5073254;28;20220;-54
2021/01/06 02:13:34;;;;;;;12.43;9.77;;;;;;;;;;5071622;28;20209;-53
2021/01/06 02:16:23;;;;;;;16.13;9.18;;;;;;;;;;5072434;28;20181;-54
2021/01/06 02:18:50;;;;;;;14.70;9.45;;;;;;;;;;5067128;28;20203;-53
2021/01/06 02:21:18;;;;;;;14.32;9.80;;;;;;;;;;5072528;28;20239;-54
2021/01/06 02:23:47;;;;;;;15.40;10.20;;;;;;;;;;5072393;28;20210;-54
2021/01/06 02:26:13;;;;;;;12.88;9.25;;;;;;;;;;5072188;28;20168;-54
2021/01/06 02:28:40;;;;;;;14.73;10.30;;;;;;;;;;5072293;28;20191;-54
2021/01/06 02:31:06;;;;;;;15.75;9.90;;;;;;;;;;5072267;28;20171;-53
2021/01/06 02:33:32;;;;;;;14.07;9.27;;;;;;;;;;5072324;28;20644;-53
2021/01/06 02:35:59;;;;;;;13.07;9.35;;;;;;;;;;5071944;28;20524;-54
2021/01/06 02:38:27;;;;;;;13.65;9.73;;;;;;;;;;5072156;28;20191;-54
2021/01/06 02:40:55;;;;;;;13.23;9.68;;;;;;;;;;5072111;28;20188;-54
2021/01/06 02:43:22;;;;;;;15.50;10.07;;;;;;;;;;5070909;28;20208;-54
2021/01/06 02:45:48;;;;;;;13.40;9.90;;;;;;;;;;5071686;28;20536;-54
2021/01/06 02:48:15;;;;;;;17.02;11.07;;;;;;;;;;5071850;28;20169;-54
2021/01/06 02:50:42;;;;;;;14.57;10.10;;;;;;;;;;5072093;28;20180;-55
2021/01/06 02:53:10;;;;;;;18.42;10.88;;;;;;;;;;5072044;28;20251;-54
2021/01/06 02:55:37;;;;;;;14.90;9.68;;;;;;;;;;5071592;28;20167;-53
2021/01/06 02:58:04;;;;;;;15.30;11.63;;;;;;;;;;5071649;28;20175;-54
2021/01/06 03:00:30;;;;;;;14.27;9.82;;;;;;;;;;5082276;23;20285;-50
2021/01/06 03:02:59;;;;;;;20.57;11.20;;;;;;;;;;5051713;28;20160;-50
2021/01/06 03:05:35;;;;;;;17.23;10.63;;;;;;;;;;5051366;28;20406;-50
2021/01/06 03:08:01;;;;;;;16.52;11.60;;;;;;;;;;5051597;28;20245;-50
2021/01/06 03:10:27;;;;;;;15.30;9.90;;;;;;;;;;5051561;28;20628;-50
2021/01/06 03:12:54;;;;;;;14.30;10.25;;;;;;;;;;5050555;28;20768;-50
2021/01/06 03:15:21;;;;;;;17.60;11.10;;;;;;;;;;5050340;28;20228;-50
2021/01/06 03:17:47;;;;;;;14.13;10.50;;;;;;;;;;5051360;28;20234;-51
2021/01/06 03:20:16;;;;;;;18.38;10.45;;;;;;;;;;5051347;28;20214;-50
2021/01/06 03:22:44;;;;;;;14.82;9.77;;;;;;;;;;5051350;28;20172;-50
2021/01/06 03:25:12;;;;;;;14.60;9.70;;;;;;;;;;5051400;28;20180;-50
2021/01/06 03:27:39;;;;;;;12.52;9.25;;;;;;;;;;5051150;28;20165;-50
2021/01/06 03:30:09;;;;;;;18.70;11.27;;;;;;;;;;5051276;28;20199;-51
2021/01/06 03:32:46;;;;;;;21.63;11.75;;;;;;;;;;5050846;28;20231;-51
2021/01/06 03:35:27;;;;;;;16.75;11.25;;;;;;;;;;5051173;28;20245;-50
2021/01/06 03:38:00;;;;;;;16.42;10.32;;;;;;;;;;5051174;28;20713;-50
2021/01/06 03:40:37;;;;;;;15.27;10.13;;;;;;;;;;5051189;28;20290;-50
2021/01/06 03:46:14;;;;;;;17.25;11.30;;;;;;;;;;5030242;28;20232;-50
2021/01/06 03:48:47;;;;;;;16.13;10.95;;;;;;;;;;5031085;28;20170;-51
2021/01/06 03:51:29;;;;;;;13.20;9.85;;;;;;;;;;5031164;28;20183;-51
2021/01/06 03:53:57;;;;;;;13.45;10.15;;;;;;;;;;5030960;28;20560;-50
2021/01/06 03:56:24;;;;;;;17.00;10.23;;;;;;;;;;5046094;28;20184;-49
2021/01/06 03:59:06;;;;;;;18.05;10.60;;;;;;;;;;5050827;28;20266;-50
2021/01/06 04:01:51;;;;;;;15.45;11.02;;;;;;;;;;5050915;28;20265;-51
2021/01/06 04:04:26;;;;;;;15.60;11.02;;;;;;;;;;5049662;28;20623;-50
2021/01/06 04:06:54;;;;;;;14.68;10.70;;;;;;;;;;5050549;28;20221;-50
2021/01/06 04:09:39;;;;;;;14.27;10.07;;;;;;;;;;5049562;28;20653;-50
2021/01/06 04:12:05;;;;;;;16.65;10.38;;;;;;;;;;5050659;28;20167;-51
2021/01/06 04:14:31;;;;;;;17.05;11.13;;;;;;;;;;5050610;28;20179;-50
2021/01/06 04:17:00;;;;;;;17.00;11.52;;;;;;;;;;5050294;28;20222;-50
2021/01/06 04:19:26;;;;;;;18.85;12.63;;;;;;;;;;5050595;28;20193;-50
2021/01/06 04:21:52;;;;;;;17.10;12.00;;;;;;;;;;5050491;28;20208;-50
2021/01/06 04:24:18;;;;;;;17.93;13.70;;;;;;;;;;5052952;28;20499;-50
2021/01/06 04:26:44;;;;;;;19.97;12.23;;;;;;;;;;5054301;28;20407;-50
2021/01/06 04:29:10;;;;;;;21.08;12.80;;;;;;;;;;5054594;28;20960;-51
2021/01/06 04:31:36;;;;;;;14.63;11.60;;;;;;;;;;5052847;28;20288;-50
2021/01/06 04:34:02;;;;;;;15.00;11.23;;;;;;;;;;5054588;28;20396;-51
2021/01/06 04:36:29;;;;;;;18.70;11.70;;;;;;;;;;5054179;28;20801;-50
2021/01/06 04:38:57;;;;;;;21.05;11.98;;;;;;;;;;5054498;28;20407;-49
2021/01/06 04:41:32;;;;;;;18.80;12.43;;;;;;;;;;5054533;28;20590;-50
2021/01/06 04:44:17;;;;;;;17.05;12.10;;;;;;;;;;5054289;28;20199;-50
2021/01/06 04:46:43;;;;;;;18.38;10.48;;;;;;;;;;5053945;28;20244;-50
2021/01/06 04:49:14;;;;;;;16.23;11.40;;;;;;;;;;5054279;28;20593;-50
2021/01/06 04:51:59;;;;;;;19.50;12.18;;;;;;;;;;5054184;28;20524;-50
2021/01/06 04:54:25;;;;;;;17.10;11.75;;;;;;;;;;5054221;28;20173;-50
2021/01/06 04:57:00;;;;;;;16.90;11.90;;;;;;;;;;5052710;28;20185;-50
2021/01/06 04:59:45;;;;;;;18.92;12.40;;;;;;;;;;5053199;28;20512;-50
2021/01/06 05:02:29;;;;;;;18.00;11.40;;;;;;;;;;5054016;28;20167;-50
2021/01/06 05:05:14;;;;;;;19.85;12.60;;;;;;;;;;5054192;28;20264;-50
2021/01/06 05:07:42;;;;;;;17.88;12.25;;;;;;;;;;5053990;28;20174;-50
2021/01/06 05:10:08;;;;;;;19.00;13.18;;;;;;;;;;5053855;28;20242;-50
2021/01/06 05:12:37;;;;;;;18.43;12.87;;;;;;;;;;5053981;28;20645;-50
2021/01/06 05:15:22;;;;;;;20.23;13.25;;;;;;;;;;5053731;28;20401;-50
2021/01/06 05:17:48;;;;;;;19.50;12.60;;;;;;;;;;5052673;28;20581;-50
2021/01/06 05:20:14;;;;;;;21.93;14.00;;;;;;;;;;5053644;28;20277;-50
2021/01/06 05:22:40;;;;;;;18.83;13.50;;;;;;;;;;5053720;28;20887;-50
2021/01/06 05:25:06;;;;;;;24.52;13.52;;;;;;;;;;5053408;28;20842;-50
2021/01/06 05:27:38;;;;;;;19.27;12.57;;;;;;;;;;5052388;28;20180;-50
2021/01/06 05:30:24;;;;;;;21.88;13.43;;;;;;;;;;5053525;28;20191;-52
2021/01/06 05:32:50;;;;;;;19.80;13.00;;;;;;;;;;5053624;28;20191;-50
2021/01/06 05:35:20;;;;;;;24.17;14.35;;;;;;;;;;5052110;28;20173;-49
2021/01/06 05:37:49;;;;;;;21.13;13.75;;;;;;;;;;5053827;28;20234;-50
2021/01/06 05:40:15;;;;;;;22.25;13.02;;;;;;;;;;5053405;28;20662;-51
2021/01/06 05:42:54;;;;;;;18.23;12.20;;;;;;;;;;5053628;28;20177;-51
2021/01/06 05:45:22;;;;;;;21.77;13.10;;;;;;;;;;5053144;28;20227;-50
2021/01/06 05:47:54;;;;;;;22.65;13.75;;;;;;;;;;5053457;28;20535;-51
2021/01/06 05:50:23;;;;;;;21.50;13.55;;;;;;;;;;5053095;28;20188;-50
2021/01/06 05:52:54;;;;;;;20.70;13.65;;;;;;;;;;5053136;28;20176;-51
2021/01/06 05:55:22;;;;;;;21.75;14.43;;;;;;;;;;5051755;28;20230;-50
2021/01/06 05:58:11;;;;;;;18.65;12.25;;;;;;;;;;5053030;28;20553;-50
2021/01/06 06:00:43;;;;;;;25.02;14.40;;;;;;;;;;5049617;28;20221;-50
2021/01/06 06:03:28;;;;;;;21.83;13.88;;;;;;;;;;5052414;28;20715;-51
2021/01/06 06:06:23;;;;;;;22.15;13.70;;;;;;;;;;5051558;28;20160;-50
2021/01/06 06:08:53;;;;;;;20.88;13.35;;;;;;;;;;5047254;28;20651;-50
2021/01/06 06:11:51;;;;;;;19.08;12.80;;;;;;;;;;5051984;28;20211;-50
2021/01/06 06:14:17;;;;;;;20.27;13.80;;;;;;;;;;5039821;28;20179;-50
2021/01/06 06:16:53;;;;;;;19.40;13.07;;;;;;;;;;5051429;28;20249;-50
2021/01/06 06:19:19;;;;;;;19.88;13.25;;;;;;;;;;5051831;28;20416;-50
2021/01/06 06:22:00;;;;;;;22.93;13.27;;;;;;;;;;5051900;28;20185;-50
2021/01/06 06:24:38;;;;;;;27.50;15.48;;;;;;;;;;5051672;28;20462;-50
2021/01/06 06:27:30;;;;;;;22.45;14.50;;;;;;;;;;5050754;28;20185;-50
2021/01/06 06:30:11;;;;;;;22.45;14.40;;;;;;;;;;5051707;28;20539;-50
2021/01/06 06:32:38;;;;;;;24.33;14.55;;;;;;;;;;5051505;28;20178;-51
2021/01/06 06:35:07;;;;;;;22.60;14.82;;;;;;;;;;5051854;28;20173;-50
2021/01/06 06:37:33;;;;;;;24.85;15.23;;;;;;;;;;5051270;28;20172;-50
2021/01/06 06:39:59;;;;;;;26.25;14.70;;;;;;;;;;5050361;28;20195;-50
2021/01/06 06:42:36;;;;;;;23.13;13.63;;;;;;;;;;5052159;28;20225;-50
2021/01/06 06:45:16;;;;;;;24.23;14.73;;;;;;;;;;5051932;28;20503;-50
2021/01/06 06:48:02;;;;;;;24.15;15.50;;;;;;;;;;5051686;28;20252;-50
2021/01/06 06:50:47;;;;;;;23.95;14.15;;;;;;;;;;5051855;28;20635;-50
2021/01/06 06:53:36;;;;;;;22.95;13.80;;;;;;;;;;5051931;28;20557;-51
2021/01/06 06:56:16;;;;;;;24.80;14.57;;;;;;;;;;5046577;28;20193;-50
2021/01/06 06:59:01;;;;;;;21.60;12.18;;;;;;;;;;5032044;28;20246;-51
2021/01/06 07:01:32;;;;;;;21.88;13.60;;;;;;;;;;5031672;28;20176;-50
2021/01/06 07:04:03;;;;;;;21.73;12.93;;;;;;;;;;5031935;28;20208;-51
2021/01/06 07:06:30;;;;;;;22.15;14.13;;;;;;;;;;5031456;28;20163;-50
2021/01/06 07:08:58;;;;;;;18.83;13.38;;;;;;;;;;5031759;28;20247;-50
2021/01/06 07:11:26;;;;;;;22.63;14.20;;;;;;;;;;5031721;28;20165;-50
2021/01/06 07:13:56;;;;;;;25.13;14.63;;;;;;;;;;5031791;28;20174;-51
2021/01/06 07:16:27;;;;;;;24.20;13.60;;;;;;;;;;5031450;28;20176;-50
2021/01/06 07:18:53;;;;;;;21.85;13.27;;;;;;;;;;5031983;28;20225;-51
2021/01/06 07:21:28;;;;;;;18.13;13.48;;;;;;;;;;5031600;28;20667;-50
2021/01/06 07:23:54;;;;;;;21.45;14.32;;;;;;;;;;5031473;28;20200;-50
2021/01/06 07:26:25;;;;;;;24.13;14.60;;;;;;;;;;5041705;28;20173;-50
2021/01/06 07:29:09;;;;;;;21.05;13.05;;;;;;;;;;5050842;28;20482;-49
2021/01/06 07:31:59;;;;;;;21.35;12.60;;;;;;;;;;5031335;28;20631;-50
2021/01/06 07:34:44;;;;;;;19.38;12.52;;;;;;;;;;5031366;28;20169;-50
2021/01/06 07:37:28;;;;;;;21.80;13.23;;;;;;;;;;5031126;28;20540;-50
2021/01/06 07:39:58;;;;;;;22.60;14.88;;;;;;;;;;5031369;28;20191;-50
2021/01/06 07:42:30;;;;;;;25.08;14.05;;;;;;;;;;5031117;28;20775;-50
2021/01/06 07:45:08;;;;;;;21.20;14.23;;;;;;;;;;5031180;28;20203;-50
2021/01/06 07:47:35;;;;;;;24.77;13.13;;;;;;;;;;5030834;28;20202;-50
2021/01/06 07:50:04;;;;;;;27.52;15.90;;;;;;;;;;5031090;28;20200;-50
2021/01/06 07:52:49;;;;;;;25.55;14.93;;;;;;;;;;5030981;28;20699;-51
2021/01/06 07:55:22;;;;;;;21.13;12.80;;;;;;;;;;5030867;28;20669;-50
2021/01/06 07:57:54;;;;;;;23.63;14.48;;;;;;;;;;5049624;28;20187;-50
2021/01/06 08:00:28;;;;;;;25.05;14.18;;;;;;;;;;5050494;28;20209;-50
2021/01/06 08:02:59;;;;;;;21.33;13.13;;;;;;;;;;5050926;28;20175;-50
2021/01/06 08:05:29;;;;;;;23.00;14.85;;;;;;;;;;5050501;28;20207;-50
2021/01/06 08:08:24;;;;;;;19.52;12.60;;;;;;;;;;5050740;28;20172;-50
2021/01/06 08:10:51;;;;;;;22.73;13.52;;;;;;;;;;5045804;28;20217;-50
2021/01/06 08:13:28;;;;;;;21.17;12.93;;;;;;;;;;5049514;28;20248;-50
2021/01/06 08:15:57;;;;;;;20.15;12.82;;;;;;;;;;5030416;28;20183;-50
2021/01/06 08:18:26;;;;;;;20.63;11.80;;;;;;;;;;5030654;28;20182;-50
2021/01/06 08:21:03;;;;;;;18.00;12.10;;;;;;;;;;5030453;28;20703;-50
2021/01/06 08:23:41;;;;;;;20.23;12.75;;;;;;;;;;5030665;28;20203;-51
2021/01/06 08:26:16;;;;;;;18.48;12.98;;;;;;;;;;5030890;28;20166;-51
2021/01/06 08:28:42;;;;;;;21.85;13.23;;;;;;;;;;5056262;28;20226;-51
2021/01/06 08:31:15;;;;;;;22.50;13.10;;;;;;;;;;5050185;28;20198;-50
2021/01/06 08:33:49;;;;;;;18.85;12.35;;;;;;;;;;5050371;28;20402;-50
2021/01/06 08:36:22;;;;;;;20.08;13.40;;;;;;;;;;5049926;28;20673;-50
2021/01/06 08:38:48;;;;;;;28.08;15.38;;;;;;;;;;5050570;28;20545;-51
2021/01/06 08:41:16;;;;;;;21.50;13.00;;;;;;;;;;5050244;28;20568;-50
2021/01/06 08:43:42;;;;;;;25.65;14.88;;;;;;;;;;5050396;28;20208;-51
2021/01/06 08:46:19;;;;;;;20.25;12.88;;;;;;;;;;5050007;28;20237;-50
2021/01/06 08:48:45;;;;;;;21.02;14.20;;;;;;;;;;5049342;28;20251;-50
2021/01/06 08:51:13;;;;;;;21.77;13.30;;;;;;;;;;5049047;28;20286;-50
2021/01/06 08:53:40;;;;;;;18.63;11.98;;;;;;;;;;5050189;28;20439;-51
2021/01/06 08:56:23;;;;;;;24.63;12.45;;;;;;;;;;5049899;28;20188;-50
2021/01/06 08:58:50;;;;;;;17.48;12.02;;;;;;;;;;5049391;28;20194;-51
2021/01/06 09:01:31;;;;;;;26.42;14.70;;;;;;;;;;5067399;23;20595;-57
2021/01/06 09:04:02;;;;;;;19.33;12.85;;;;;;;;;;5070088;28;20196;-56
2021/01/06 09:06:29;;;;;;;19.50;13.35;;;;;;;;;;5070025;28;20170;-56
2021/01/06 09:09:05;;;;;;;24.92;13.00;;;;;;;;;;5068931;28;20260;-56
2021/01/06 09:11:54;;;;;;;21.65;12.77;;;;;;;;;;5059161;28;20259;-56
2021/01/06 09:14:30;;;;;;;19.42;12.45;;;;;;;;;;5053962;28;20174;-54
2021/01/06 09:16:59;;;;;;;27.58;13.77;;;;;;;;;;5050728;28;20180;-54
2021/01/06 09:19:43;;;;;;;23.65;13.85;;;;;;;;;;5054227;28;20192;-56
2021/01/06 09:22:13;;;;;;;25.50;15.27;;;;;;;;;;5054217;28;20180;-56
2021/01/06 09:24:40;;;;;;;20.42;12.27;;;;;;;;;;5053835;28;20202;-56
2021/01/06 09:27:29;;;;;;;21.65;12.30;;;;;;;;;;5053367;28;20576;-56
2021/01/06 09:29:56;;;;;;;23.27;13.73;;;;;;;;;;5053744;28;20693;-56
2021/01/06 09:32:32;;;;;;;20.00;12.35;;;;;;;;;;5053544;28;20261;-57
2021/01/06 09:34:59;;;;;;;18.50;11.95;;;;;;;;;;5053648;28;20597;-55
2021/01/06 09:37:28;;;;;;;19.52;12.13;;;;;;;;;;5049507;28;20235;-56
2021/01/06 09:39:55;;;;;;;20.30;13.77;;;;;;;;;;5053505;28;20176;-56
2021/01/06 09:42:22;;;;;;;21.60;13.65;;;;;;;;;;5053261;28;20208;-56
2021/01/06 09:44:49;;;;;;;21.27;14.00;;;;;;;;;;5053368;28;20301;-56
2021/01/06 09:47:36;;;;;;;23.02;14.07;;;;;;;;;;5052980;28;20217;-55
2021/01/06 09:50:14;;;;;;;21.85;13.75;;;;;;;;;;5053028;28;20639;-56
2021/01/06 09:52:40;;;;;;;19.38;12.65;;;;;;;;;;5053048;28;20179;-57
2021/01/06 09:55:07;;;;;;;22.50;14.23;;;;;;;;;;5053271;28;20218;-57
2021/01/06 09:57:33;;;;;;;28.35;14.82;;;;;;;;;;5052679;28;20193;-55
2021/01/06 10:00:02;;;;;;;23.93;15.23;;;;;;;;;;5054814;28;20174;-55
2021/01/06 10:02:33;;;;;;;21.27;13.52;;;;;;;;;;5049703;28;20477;-55
2021/01/06 10:05:17;;;;;;;19.98;12.85;;;;;;;;;;5032500;28;20206;-55
2021/01/06 10:08:02;;;;;;;19.63;11.93;;;;;;;;;;5033044;28;20231;-56
2021/01/06 10:10:31;;;;;;;28.92;13.75;;;;;;;;;;5032853;28;20193;-56
2021/01/06 10:13:08;;;;;;;21.58;12.45;;;;;;;;;;5032877;28;20528;-57
2021/01/06 10:15:52;;;;;;;23.27;13.00;;;;;;;;;;5032522;28;20163;-55
2021/01/06 10:18:22;;;;;;;18.77;12.93;;;;;;;;;;5032809;28;20170;-56
2021/01/06 10:20:51;;;;;;;20.10;13.77;;;;;;;;;;5031942;28;20756;-56
2021/01/06 10:23:32;;;;;;;18.33;12.73;;;;;;;;;;5032464;28;20178;-56
2021/01/06 10:26:11;;;;;;;21.73;13.15;;;;;;;;;;5032226;28;20165;-55
2021/01/06 10:28:44;;;;;;;25.13;12.85;;;;;;;;;;5032603;28;20170;-56
2021/01/06 10:31:21;;;;;;;21.80;14.10;;;;;;;;;;5031505;28;20199;-55
2021/01/06 10:34:02;;;;;;;19.20;12.38;;;;;;;;;;5012617;28;20634;-56
2021/01/06 10:36:39;;;;;;;24.23;12.90;;;;;;;;;;5012518;28;20258;-56
2021/01/06 10:39:05;;;;;;;19.55;13.52;;;;;;;;;;5012764;28;20193;-56
2021/01/06 10:41:35;;;;;;;23.13;14.43;;;;;;;;;;5012505;28;20224;-56
2021/01/06 10:44:02;;;;;;;21.88;13.20;;;;;;;;;;5012281;28;20217;-56
2021/01/06 10:46:39;;;;;;;16.13;11.55;;;;;;;;;;5012246;28;20245;-55
2021/01/06 10:49:06;;;;;;;17.75;12.38;;;;;;;;;;5012413;28;20168;-57
2021/01/06 10:51:51;;;;;;;19.00;11.98;;;;;;;;;;5012277;28;20244;-56
2021/01/06 10:54:20;;;;;;;21.98;13.73;;;;;;;;;;5012278;28;20172;-56
2021/01/06 10:56:46;;;;;;;23.52;12.40;;;;;;;;;;5012065;28;20719;-55
2021/01/06 10:59:14;;;;;;;20.00;13.20;;;;;;;;;;5012137;28;20180;-56
2021/01/06 11:02:02;;;;;;;19.98;13.07;;;;;;;;;;5011947;28;20824;-56
2021/01/06 11:04:37;;;;;;;18.52;12.05;;;;;;;;;;5026314;28;20195;-55
2021/01/06 11:07:17;;;;;;;31.10;13.93;;;;;;;;;;5051024;28;20216;-56
2021/01/06 11:09:56;;;;;;;24.25;14.20;;;;;;;;;;5051142;28;20221;-56
2021/01/06 11:12:37;;;;;;;22.52;14.88;;;;;;;;;;5051384;28;20215;-56
2021/01/06 11:15:10;;;;;;;16.60;11.43;;;;;;;;;;5050996;28;20185;-56
2021/01/06 11:17:37;;;;;;;20.40;12.80;;;;;;;;;;5033623;28;20655;-56
2021/01/06 11:20:22;;;;;;;20.63;13.10;;;;;;;;;;5031519;28;20211;-56
2021/01/06 11:22:49;;;;;;;19.83;13.13;;;;;;;;;;5031961;28;20184;-56
2021/01/06 11:25:27;;;;;;;17.38;11.35;;;;;;;;;;5031537;28;20239;-57
2021/01/06 11:28:09;;;;;;;21.67;13.20;;;;;;;;;;5031859;28;20168;-55
2021/01/06 11:30:41;;;;;;;16.17;10.98;;;;;;;;;;5031990;28;20187;-50
2021/01/06 11:33:19;;;;;;;19.50;11.98;;;;;;;;;;5036645;28;20660;-51
2021/01/06 11:35:45;;;;;;;20.83;14.00;;;;;;;;;;5050936;28;20184;-51
2021/01/06 11:38:29;;;;;;;19.97;12.47;;;;;;;;;;5049314;28;20171;-51
2021/01/06 11:40:55;;;;;;;20.33;12.82;;;;;;;;;;5050353;28;20445;-51
2021/01/06 11:43:33;;;;;;;16.70;10.70;;;;;;;;;;5050590;28;20172;-54
2021/01/06 11:45:59;;;;;;;19.85;12.32;;;;;;;;;;5050855;28;20166;-50
2021/01/06 11:48:36;;;;;;;21.15;11.35;;;;;;;;;;5050896;28;20173;-55
2021/01/06 11:51:13;;;;;;;17.13;11.68;;;;;;;;;;5051013;28;20206;-52
2021/01/06 11:53:41;;;;;;;17.65;11.90;;;;;;;;;;5050871;28;20204;-51
2021/01/06 11:56:28;;;;;;;24.55;13.48;;;;;;;;;;5050610;28;20243;-53
2021/01/06 11:58:57;;;;;;;17.25;10.68;;;;;;;;;;5050769;28;20178;-52
2021/01/06 12:01:32;;;;;;;20.35;11.77;;;;;;;;;;5050611;28;20215;-51
2021/01/06 12:04:02;;;;;;;16.55;10.95;;;;;;;;;;5047660;28;20235;-52
2021/01/06 12:06:37;;;;;;;20.65;11.82;;;;;;;;;;5050674;28;20208;-52
2021/01/06 12:09:23;;;;;;;16.40;10.45;;;;;;;;;;5044951;28;20175;-52
2021/01/06 12:11:54;;;;;;;15.48;10.48;;;;;;;;;;5030573;28;20189;-53
2021/01/06 12:14:32;;;;;;;18.92;11.30;;;;;;;;;;5030372;28;20198;-51
2021/01/06 12:17:20;;;;;;;29.67;12.23;;;;;;;;;;5030325;28;20171;-54
2021/01/06 12:20:04;;;;;;;20.70;12.85;;;;;;;;;;5030405;28;20205;-52
2021/01/06 12:22:30;;;;;;;18.95;10.90;;;;;;;;;;5030748;28;20791;-51
2021/01/06 12:25:01;;;;;;;17.73;10.68;;;;;;;;;;5030624;28;20207;-55
2021/01/06 12:27:36;;;;;;;19.15;11.52;;;;;;;;;;5030467;28;20219;-52
2021/01/06 12:30:22;;;;;;;20.30;12.35;;;;;;;;;;5030507;28;20698;-56
2021/01/06 12:32:53;;;;;;;18.40;11.13;;;;;;;;;;5030327;28;20192;-52
2021/01/06 12:35:19;;;;;;;19.33;11.43;;;;;;;;;;5045754;28;20253;-51
2021/01/06 12:37:55;;;;;;;17.33;12.20;;;;;;;;;;5050378;28;20206;-51
2021/01/06 12:40:23;;;;;;;18.17;10.57;;;;;;;;;;5050399;28;20421;-51
2021/01/06 12:42:59;;;;;;;17.63;11.10;;;;;;;;;;5050234;28;20169;-52
2021/01/06 12:45:27;;;;;;;15.82;11.10;;;;;;;;;;5052688;28;20284;-52
2021/01/06 12:47:59;;;;;;;18.98;11.45;;;;;;;;;;5054241;28;20703;-50
2021/01/06 12:50:29;;;;;;;15.40;10.20;;;;;;;;;;5054436;28;20269;-52
2021/01/06 12:53:10;;;;;;;14.77;10.35;;;;;;;;;;5054178;28;20173;-50
2021/01/06 12:55:45;;;;;;;17.80;10.90;;;;;;;;;;5054331;28;20169;-51
2021/01/06 12:58:31;;;;;;;15.98;11.50;;;;;;;;;;5054129;28;20173;-56
2021/01/06 13:01:20;;;;;;;16.38;11.50;;;;;;;;;;5022957;28;20222;-56
2021/01/06 13:03:52;;;;;;;16.75;10.32;;;;;;;;;;5021849;28;20287;-50
2021/01/06 13:06:38;;;;;;;13.75;9.75;;;;;;;;;;5053952;28;20169;-51
2021/01/06 13:09:07;;;;;;;16.48;11.32;;;;;;;;;;5039155;28;20177;-52
2021/01/06 13:11:48;;;;;;;20.13;12.15;;;;;;;;;;5054195;28;20193;-54
2021/01/06 13:14:17;;;;;;;15.27;10.63;;;;;;;;;;5053642;28;20190;-51
2021/01/06 13:17:09;;;;;;;20.42;11.20;;;;;;;;;;5053757;28;20540;-50
2021/01/06 13:19:40;;;;;;;14.57;10.50;;;;;;;;;;5030263;28;20783;-50
2021/01/06 13:22:06;;;;;;;19.00;11.90;;;;;;;;;;5053708;28;20189;-53
2021/01/06 13:24:33;;;;;;;18.07;11.80;;;;;;;;;;5053535;28;20197;-53
2021/01/06 13:27:01;;;;;;;17.08;10.60;;;;;;;;;;5053390;28;20402;-51
2021/01/06 13:29:30;;;;;;;14.88;10.25;;;;;;;;;;5053559;28;20536;-51
2021/01/06 13:32:04;;;;;;;13.50;10.07;;;;;;;;;;5053700;28;20187;-50
2021/01/06 13:34:36;;;;;;;12.43;9.80;;;;;;;;;;5029887;28;20194;-53
2021/01/06 13:37:08;;;;;;;17.38;12.63;;;;;;;;;;5033195;28;20587;-52
2021/01/06 13:39:38;;;;;;;14.35;10.35;;;;;;;;;;5033495;28;20178;-52
2021/01/06 13:42:22;;;;;;;16.08;9.93;;;;;;;;;;5033201;28;20204;-54
2021/01/06 13:44:49;;;;;;;14.90;10.25;;;;;;;;;;5033159;28;20227;-52
2021/01/06 13:47:21;;;;;;;16.75;11.65;;;;;;;;;;5033035;28;20194;-51
2021/01/06 13:49:59;;;;;;;18.02;11.73;;;;;;;;;;5033235;28;20194;-51
2021/01/06 13:52:25;;;;;;;17.00;11.07;;;;;;;;;;5033345;28;20156;-52
2021/01/06 13:54:54;;;;;;;15.33;10.27;;;;;;;;;;5033118;28;20293;-51
2021/01/06 13:57:30;;;;;;;15.50;9.73;;;;;;;;;;5031313;28;20456;-51
2021/01/06 14:00:02;;;;;;;15.25;10.38;;;;;;;;;;5031628;28;20168;-50
2021/01/06 14:02:37;;;;;;;14.77;10.23;;;;;;;;;;5032075;28;20225;-51
2021/01/06 14:05:06;;;;;;;14.68;9.45;;;;;;;;;;5043119;28;20255;-51
2021/01/06 14:07:50;;;;;;;16.40;10.50;;;;;;;;;;5052738;28;20709;-54
2021/01/06 14:10:35;;;;;;;14.73;9.43;;;;;;;;;;5052390;28;20558;-53
2021/01/06 14:13:25;;;;;;;14.63;9.55;;;;;;;;;;5050842;28;20249;-54
2021/01/06 14:16:10;;;;;;;17.98;9.52;;;;;;;;;;5024242;28;20185;-52
2021/01/06 14:18:52;;;;;;;15.45;10.50;;;;;;;;;;5052288;28;20176;-53
2021/01/06 14:21:36;;;;;;;16.23;10.05;;;;;;;;;;5052363;28;20217;-53
2021/01/06 14:24:03;;;;;;;15.18;9.45;;;;;;;;;;5052601;28;20192;-53
2021/01/06 14:26:44;;;;;;;14.98;9.40;;;;;;;;;;5052012;28;20598;-53
2021/01/06 14:29:22;;;;;;;11.48;8.90;;;;;;;;;;5052221;28;20172;-52
2021/01/06 14:32:12;;;;;;;14.75;9.85;;;;;;;;;;5052231;28;20593;-53
2021/01/06 14:34:38;;;;;;;12.38;9.90;;;;;;;;;;5041130;28;20189;-53
2021/01/06 14:37:18;;;;;;;14.23;10.90;;;;;;;;;;5052108;28;20507;-53
2021/01/06 14:39:50;;;;;;;16.08;9.75;;;;;;;;;;5052129;28;20207;-53
2021/01/06 14:42:16;;;;;;;17.50;10.10;;;;;;;;;;5052213;28;20175;-53
2021/01/06 14:44:51;;;;;;;14.90;10.30;;;;;;;;;;5052139;28;20605;-53
2021/01/06 14:47:36;;;;;;;14.02;9.93;;;;;;;;;;5052331;28;20822;-52
2021/01/06 14:50:05;;;;;;;14.82;10.43;;;;;;;;;;5052038;28;20549;-54
2021/01/06 14:52:38;;;;;;;18.17;11.57;;;;;;;;;;5052433;28;20168;-52